Time;durP1;ratioP1;P1;durP2;ratioP2;P2;SDS_P1;SDS_P2;PMS_P1;PMS_P2;Temp;Humidity;BMP_temperature;BMP_pressure;BME280_temperature;BME280_humidity;BME280_pressure;Samples;Min_cycle;Max_cycle;Signal;HPM_P1;HPM_P2
2023/08/18 00:00:39;;;;;;;9.90;6.10;;;20.40;92.00;;;;;;5116567;28;20051;-78
2023/08/18 00:03:05;;;;;;;8.00;5.78;;;20.40;92.00;;;;;;5116389;28;20478;-78
2023/08/18 00:05:30;;;;;;;8.60;6.15;;;20.40;92.00;;;;;;5116085;28;20024;-78
2023/08/18 00:07:56;;;;;;;7.78;5.43;;;20.40;92.00;;;;;;5082480;28;20066;-78
2023/08/18 00:10:22;;;;;;;10.75;5.85;;;20.40;91.90;;;;;;5134227;28;20043;-78
2023/08/18 00:12:47;;;;;;;7.22;5.30;;;20.40;91.80;;;;;;5099259;28;20028;-78
2023/08/18 00:15:13;;;;;;;8.52;5.60;;;20.30;91.90;;;;;;5099293;28;20042;-79
2023/08/18 00:17:41;;;;;;;8.02;5.60;;;20.30;91.90;;;;;;5116086;28;20048;-78
2023/08/18 00:20:08;;;;;;;8.50;5.60;;;20.30;91.90;;;;;;5116607;28;20045;-78
2023/08/18 00:22:34;;;;;;;9.82;5.90;;;20.30;91.80;;;;;;5116133;28;20030;-79
2023/08/18 00:24:59;;;;;;;8.27;5.55;;;20.30;92.20;;;;;;5099325;28;20063;-78
2023/08/18 00:27:25;;;;;;;8.00;5.47;;;20.30;91.80;;;;;;5116115;28;20034;-78
2023/08/18 00:29:51;;;;;;;8.27;5.60;;;20.30;91.80;;;;;;5099132;28;20031;-79
2023/08/18 00:32:17;;;;;;;7.53;5.57;;;20.30;91.80;;;;;;5115951;28;20027;-79
2023/08/18 00:34:42;;;;;;;10.60;5.68;;;20.30;91.80;;;;;;5133925;28;20024;-79
2023/08/18 00:37:08;;;;;;;8.77;5.82;;;20.30;92.20;;;;;;5099182;28;20020;-79
2023/08/18 00:39:33;;;;;;;8.05;5.60;;;20.30;91.80;;;;;;5082365;28;20028;-79
2023/08/18 00:41:59;;;;;;;8.55;5.63;;;20.30;91.80;;;;;;5082319;28;20028;-78
2023/08/18 00:44:25;;;;;;;11.02;6.22;;;20.30;91.80;;;;;;5115827;28;20050;-79
2023/08/18 00:46:50;;;;;;;8.80;5.78;;;20.30;91.80;;;;;;5098919;28;20038;-79
2023/08/18 00:49:18;;;;;;;10.77;6.65;;;20.20;91.70;;;;;;5115866;28;20027;-79
2023/08/18 00:51:45;;;;;;;11.48;6.40;;;20.20;91.70;;;;;;5115665;28;20050;-79
2023/08/18 00:54:12;;;;;;;8.90;5.95;;;20.10;91.70;;;;;;5115719;28;20019;-79
2023/08/18 00:56:39;;;;;;;9.25;6.15;;;20.10;91.80;;;;;;5115773;28;20024;-78
2023/08/18 00:59:06;;;;;;;8.40;6.30;;;20.10;91.90;;;;;;5115745;28;20023;-79
2023/08/18 01:01:33;;;;;;;10.07;5.93;;;20.10;91.90;;;;;;5115688;28;20032;-79
2023/08/18 01:04:00;;;;;;;10.18;6.15;;;20.10;91.90;;;;;;5133708;28;20019;-78
2023/08/18 01:06:25;;;;;;;9.95;6.40;;;20.10;91.90;;;;;;5115450;28;20024;-79
2023/08/18 01:08:51;;;;;;;8.80;6.47;;;20.10;91.90;;;;;;5098801;28;20038;-78
2023/08/18 01:11:41;;;;;;;8.88;5.40;;;20.10;91.90;;;;;;5098600;28;20032;-78
2023/08/18 01:14:32;;;;;;;10.25;6.95;;;20.10;91.90;;;;;;5133558;28;20024;-78
2023/08/18 01:17:11;;;;;;;9.18;6.38;;;20.10;91.80;;;;;;5135191;28;20026;-79
2023/08/18 01:19:37;;;;;;;10.88;6.05;;;20.10;91.90;;;;;;5119445;28;20030;-78
2023/08/18 01:22:06;;;;;;;10.32;6.50;;;20.10;91.90;;;;;;5102472;28;20023;-78
2023/08/18 01:24:31;;;;;;;10.88;6.60;;;20.10;91.90;;;;;;5119257;28;20027;-78
2023/08/18 01:26:57;;;;;;;9.98;6.53;;;20.00;91.80;;;;;;5119419;28;20091;-78
2023/08/18 01:29:23;;;;;;;11.20;6.82;;;20.00;91.80;;;;;;5085610;28;20031;-78
2023/08/18 01:31:55;;;;;;;9.43;6.20;;;20.00;91.90;;;;;;5119363;28;20026;-78
2023/08/18 01:34:23;;;;;;;;;;;20.00;92.00;;;;;;5137548;28;20020;-78
2023/08/18 01:36:51;;;;;;;10.10;6.60;;;20.00;92.00;;;;;;5137181;28;19926;-78
2023/08/18 01:39:18;;;;;;;11.38;6.32;;;19.90;92.00;;;;;;5118989;28;20026;-78
2023/08/18 01:41:45;;;;;;;10.55;6.80;;;19.90;92.10;;;;;;5118977;28;20031;-78
2023/08/18 01:44:14;;;;;;;10.52;6.68;;;19.90;92.20;;;;;;5136985;28;20032;-78
2023/08/18 01:46:41;;;;;;;9.80;6.45;;;19.90;92.20;;;;;;5118962;28;20110;-78
2023/08/18 01:49:07;;;;;;;11.40;6.35;;;19.90;92.20;;;;;;5102103;28;20043;-79
2023/08/18 01:51:32;;;;;;;9.93;6.55;;;19.80;92.20;;;;;;5118939;28;20084;-78
2023/08/18 01:53:58;;;;;;;8.88;6.30;;;19.80;92.20;;;;;;5101902;28;20095;-77
2023/08/18 01:56:24;;;;;;;10.68;6.50;;;19.80;92.20;;;;;;5136796;28;20028;-76
2023/08/18 01:58:49;;;;;;;9.25;6.10;;;19.90;92.20;;;;;;5085099;28;20113;-76
2023/08/18 02:01:15;;;;;;;9.57;6.70;;;19.90;92.20;;;;;;5085025;28;20044;-76
2023/08/18 02:03:40;;;;;;;9.48;6.32;;;19.90;92.20;;;;;;5118684;28;20055;-77
2023/08/18 02:06:06;;;;;;;12.02;6.40;;;19.80;92.20;;;;;;5118530;28;20169;-76
2023/08/18 02:08:32;;;;;;;11.65;6.75;;;19.80;92.20;;;;;;5101516;28;20031;-77
2023/08/18 02:11:02;;;;;;;10.88;6.90;;;19.80;92.20;;;;;;5084753;28;20024;-76
2023/08/18 02:13:28;;;;;;;10.35;6.68;;;19.80;92.20;;;;;;5101695;28;20047;-76
2023/08/18 02:15:54;;;;;;;10.07;6.90;;;19.80;92.10;;;;;;5118258;28;20038;-76
2023/08/18 02:18:19;;;;;;;9.32;6.57;;;19.70;92.20;;;;;;5101421;28;20027;-76
2023/08/18 02:20:45;;;;;;;10.15;6.10;;;19.70;92.10;;;;;;5118548;28;20028;-77
2023/08/18 02:23:11;;;;;;;8.80;6.03;;;19.70;92.10;;;;;;5101439;28;20027;-77
2023/08/18 02:25:36;;;;;;;10.27;6.80;;;19.70;92.10;;;;;;5101380;28;20023;-77
2023/08/18 02:28:02;;;;;;;10.77;6.35;;;19.70;92.20;;;;;;5101164;28;20042;-76
2023/08/18 02:30:27;;;;;;;9.20;6.18;;;19.70;92.10;;;;;;5101370;28;20028;-76
2023/08/18 02:32:53;;;;;;;9.35;6.80;;;19.70;92.20;;;;;;5118035;28;20035;-76
2023/08/18 02:35:19;;;;;;;10.05;6.88;;;19.70;92.20;;;;;;5117987;28;20046;-76
2023/08/18 02:37:44;;;;;;;9.27;6.00;;;19.60;92.30;;;;;;5136041;28;20023;-76
2023/08/18 02:40:10;;;;;;;11.27;6.28;;;19.70;92.30;;;;;;5100934;28;20031;-76
2023/08/18 02:42:36;;;;;;;10.93;6.68;;;19.70;92.20;;;;;;5100956;28;20035;-77
2023/08/18 02:45:02;;;;;;;10.40;6.50;;;19.70;92.20;;;;;;5117891;28;20039;-76
2023/08/18 02:47:28;;;;;;;10.50;6.35;;;19.70;92.20;;;;;;5101025;28;20047;-77
2023/08/18 02:49:54;;;;;;;10.88;6.68;;;19.70;92.20;;;;;;5084050;28;20034;-76
2023/08/18 02:52:19;;;;;;;10.73;6.50;;;19.70;92.10;;;;;;5117710;28;20032;-76
2023/08/18 02:54:45;;;;;;;10.63;6.07;;;19.70;92.10;;;;;;5100785;28;20035;-76
2023/08/18 02:57:10;;;;;;;10.68;6.88;;;19.80;92.50;;;;;;5084075;28;20087;-76
2023/08/18 02:59:36;;;;;;;11.98;6.53;;;19.70;92.10;;;;;;5135542;28;20024;-77
2023/08/18 03:02:02;;;;;;;9.95;6.68;;;19.70;92.10;;;;;;5100606;28;20027;-76
2023/08/18 03:04:27;;;;;;;11.75;6.55;;;19.70;92.10;;;;;;5100595;28;20024;-77
2023/08/18 03:06:53;;;;;;;9.23;6.45;;;19.70;92.10;;;;;;5117391;28;20070;-76
2023/08/18 03:09:19;;;;;;;8.85;6.15;;;19.70;92.20;;;;;;5135445;28;20023;-77
2023/08/18 03:11:44;;;;;;;9.68;6.50;;;19.70;92.20;;;;;;5083567;28;20039;-77
2023/08/18 03:14:11;;;;;;;11.65;6.10;;;19.70;92.20;;;;;;5100478;28;20027;-78
2023/08/18 03:16:37;;;;;;;10.95;6.88;;;19.60;92.60;;;;;;5117460;28;20028;-77
2023/08/18 03:19:03;;;;;;;10.65;6.28;;;19.60;92.20;;;;;;5100118;28;20043;-77
2023/08/18 03:21:28;;;;;;;9.43;6.38;;;19.60;92.20;;;;;;5083518;28;20031;-78
2023/08/18 03:23:54;;;;;;;9.52;6.22;;;19.60;92.20;;;;;;5100147;28;20100;-78
2023/08/18 03:26:20;;;;;;;10.48;6.40;;;19.60;92.20;;;;;;5117129;28;20119;-78
2023/08/18 03:28:45;;;;;;;9.65;6.57;;;19.60;92.70;;;;;;5100317;28;20173;-78
2023/08/18 03:31:11;;;;;;;11.85;6.30;;;19.60;92.30;;;;;;5100092;28;20015;-78
2023/08/18 03:33:37;;;;;;;11.00;6.07;;;19.50;92.40;;;;;;5099844;28;20123;-78
2023/08/18 03:36:03;;;;;;;11.10;6.57;;;19.50;92.40;;;;;;5100182;28;20026;-78
2023/08/18 03:38:29;;;;;;;10.57;6.82;;;19.60;92.40;;;;;;5134761;28;20035;-77
2023/08/18 03:41:00;;;;;;;10.13;6.22;;;19.60;92.50;;;;;;5116535;28;20016;-78
2023/08/18 03:43:26;;;;;;;11.70;6.95;;;19.60;92.40;;;;;;5116605;28;20027;-77
2023/08/18 03:45:51;;;;;;;10.40;6.72;;;19.60;92.40;;;;;;5099711;28;20024;-78
2023/08/18 03:48:17;;;;;;;10.80;6.75;;;19.60;92.50;;;;;;5116593;28;20023;-78
2023/08/18 03:50:43;;;;;;;12.05;6.93;;;19.60;92.50;;;;;;5099672;28;20024;-78
2023/08/18 03:53:08;;;;;;;10.88;6.45;;;19.60;92.40;;;;;;5116498;28;20035;-78
2023/08/18 03:55:34;;;;;;;12.73;6.53;;;19.60;92.40;;;;;;5116501;28;20031;-77
2023/08/18 03:58:00;;;;;;;10.13;6.75;;;19.60;92.40;;;;;;5082777;28;20061;-77
2023/08/18 04:00:25;;;;;;;12.25;6.68;;;19.60;92.50;;;;;;5116475;28;20088;-77
2023/08/18 04:02:51;;;;;;;10.80;6.93;;;19.60;92.50;;;;;;5116435;28;20027;-78
2023/08/18 04:05:16;;;;;;;11.88;6.43;;;19.60;92.50;;;;;;5116302;28;20036;-78
2023/08/18 04:07:42;;;;;;;9.85;6.63;;;19.60;92.50;;;;;;5134103;28;20040;-78
2023/08/18 04:10:08;;;;;;;12.98;7.70;;;19.50;92.50;;;;;;5116387;28;20035;-78
2023/08/18 04:12:34;;;;;;;13.73;7.40;;;19.50;92.70;;;;;;5099177;28;20035;-78
2023/08/18 04:15:00;;;;;;;12.38;7.72;;;19.50;92.80;;;;;;5134205;28;20030;-77
2023/08/18 04:17:26;;;;;;;13.05;7.53;;;19.50;92.80;;;;;;5116070;28;20103;-78
2023/08/18 04:19:51;;;;;;;14.23;7.95;;;19.50;92.90;;;;;;5134154;28;20034;-77
2023/08/18 04:22:17;;;;;;;14.15;8.23;;;19.40;92.90;;;;;;5099286;28;20027;-77
2023/08/18 04:24:43;;;;;;;14.52;7.95;;;19.40;92.90;;;;;;5099224;28;20054;-78
2023/08/18 04:27:08;;;;;;;15.80;8.38;;;19.40;93.00;;;;;;5116106;28;20091;-78
2023/08/18 04:29:34;;;;;;;17.63;9.30;;;19.40;93.00;;;;;;5116101;28;20028;-77
2023/08/18 04:32:00;;;;;;;17.02;8.85;;;19.40;93.00;;;;;;5098939;28;20047;-78
2023/08/18 04:34:27;;;;;;;14.52;8.70;;;19.40;93.00;;;;;;5082224;28;20091;-78
2023/08/18 04:36:52;;;;;;;14.63;8.57;;;19.40;93.10;;;;;;5133954;28;20073;-77
2023/08/18 04:39:18;;;;;;;16.25;9.27;;;19.30;93.10;;;;;;5099086;28;20024;-78
2023/08/18 04:41:43;;;;;;;18.42;9.00;;;19.30;93.20;;;;;;5099106;28;20042;-77
2023/08/18 04:44:09;;;;;;;18.77;9.25;;;19.30;93.30;;;;;;5133870;28;20498;-78
2023/08/18 04:46:35;;;;;;;16.63;8.52;;;19.40;93.20;;;;;;5098958;28;20020;-77
2023/08/18 04:49:00;;;;;;;15.18;9.10;;;19.30;93.20;;;;;;5115792;28;20032;-77
2023/08/18 04:51:28;;;;;;;16.65;8.70;;;19.30;93.20;;;;;;5099523;28;20038;-77
2023/08/18 04:53:53;;;;;;;16.13;9.18;;;19.30;93.30;;;;;;5120026;28;20020;-78
2023/08/18 04:56:19;;;;;;;14.85;8.82;;;19.30;93.30;;;;;;5137829;28;20065;-78
2023/08/18 04:58:44;;;;;;;17.75;9.35;;;19.40;93.30;;;;;;5103046;28;20028;-78
2023/08/18 05:01:10;;;;;;;16.52;9.23;;;19.30;93.30;;;;;;5102892;28;20028;-78
2023/08/18 05:03:36;;;;;;;16.42;8.82;;;19.30;93.40;;;;;;5119753;28;20032;-80
2023/08/18 05:06:09;;;;;;;16.13;8.50;;;19.30;93.40;;;;;;5119825;28;20035;-78
2023/08/18 05:08:36;;;;;;;15.93;9.00;;;19.30;93.50;;;;;;5120263;28;20065;-79
2023/08/18 05:11:07;;;;;;;18.38;9.38;;;19.30;93.50;;;;;;5119568;28;20020;-80
2023/08/18 05:13:33;;;;;;;15.02;8.80;;;19.30;93.60;;;;;;5119538;28;20019;-77
2023/08/18 05:16:00;;;;;;;15.85;9.27;;;19.30;93.60;;;;;;5119778;28;20108;-77
2023/08/18 05:18:26;;;;;;;16.58;8.88;;;19.20;93.60;;;;;;5119587;28;20103;-79
2023/08/18 05:20:52;;;;;;;17.35;9.73;;;19.20;94.10;;;;;;5137510;28;20080;-78
2023/08/18 05:23:17;;;;;;;16.98;9.15;;;19.20;93.80;;;;;;5085756;28;20020;-79
2023/08/18 05:25:45;;;;;;;17.52;9.63;;;19.20;93.80;;;;;;5119355;28;20024;-79
2023/08/18 05:28:11;;;;;;;17.10;9.73;;;19.20;94.00;;;;;;5102659;28;20024;-78
2023/08/18 05:30:37;;;;;;;17.60;9.30;;;19.20;94.00;;;;;;5102548;28;20058;-80
2023/08/18 05:33:03;;;;;;;18.40;9.18;;;19.10;94.00;;;;;;5102300;28;20028;-77
2023/08/18 05:35:28;;;;;;;16.13;9.13;;;19.20;94.10;;;;;;5102131;28;20420;-79
2023/08/18 05:37:54;;;;;;;20.00;9.88;;;19.20;94.10;;;;;;5119333;28;20026;-79
2023/08/18 05:40:20;;;;;;;21.30;10.07;;;19.20;94.00;;;;;;5119103;28;20032;-80
2023/08/18 05:42:45;;;;;;;19.45;10.07;;;19.20;94.00;;;;;;5119186;28;20039;-80
2023/08/18 05:45:11;;;;;;;16.80;10.13;;;19.20;94.10;;;;;;5119081;28;20032;-79
2023/08/18 05:47:36;;;;;;;20.50;10.55;;;19.10;94.20;;;;;;5119125;28;20053;-79
2023/08/18 05:50:03;;;;;;;18.88;9.90;;;19.10;94.30;;;;;;5101959;28;20042;-78
2023/08/18 05:52:28;;;;;;;20.50;10.85;;;19.10;94.40;;;;;;5119052;28;20026;-79
2023/08/18 05:54:54;;;;;;;19.98;10.10;;;19.10;94.40;;;;;;5118866;28;20095;-78
2023/08/18 05:57:20;;;;;;;19.80;10.80;;;19.10;94.50;;;;;;5118879;28;20053;-78
2023/08/18 05:59:45;;;;;;;18.02;9.68;;;19.10;94.50;;;;;;5101860;28;20045;-78
2023/08/18 06:02:11;;;;;;;17.42;9.95;;;19.20;94.50;;;;;;5118258;28;20407;-78
2023/08/18 06:04:37;;;;;;;21.27;11.15;;;19.20;94.60;;;;;;5101815;28;20120;-78
2023/08/18 06:07:02;;;;;;;20.98;10.85;;;19.20;94.60;;;;;;5118267;28;20055;-78
2023/08/18 06:09:28;;;;;;;20.55;10.65;;;19.20;94.50;;;;;;5117432;28;20024;-78
2023/08/18 06:11:54;;;;;;;19.38;10.05;;;19.20;94.60;;;;;;5100336;28;20047;-78
2023/08/18 06:14:19;;;;;;;21.83;11.82;;;19.20;94.60;;;;;;5117460;28;20020;-78
2023/08/18 06:16:45;;;;;;;20.10;10.75;;;19.20;94.70;;;;;;5135483;28;20028;-78
2023/08/18 06:19:12;;;;;;;20.70;10.70;;;19.20;94.80;;;;;;5100357;28;20023;-77
2023/08/18 06:21:37;;;;;;;18.08;10.30;;;19.20;94.70;;;;;;5100586;28;20087;-77
2023/08/18 06:24:03;;;;;;;18.20;10.10;;;19.20;94.80;;;;;;5100155;28;20053;-78
2023/08/18 06:26:29;;;;;;;18.02;9.80;;;19.20;94.90;;;;;;5117269;28;20527;-78
2023/08/18 06:28:55;;;;;;;19.10;10.48;;;19.20;94.90;;;;;;5117234;28;20027;-78
2023/08/18 06:31:20;;;;;;;20.00;10.63;;;19.20;94.90;;;;;;5100060;28;20036;-78
2023/08/18 06:33:46;;;;;;;21.45;11.75;;;19.30;94.90;;;;;;5116968;28;20028;-78
2023/08/18 06:36:11;;;;;;;18.35;10.25;;;19.30;94.90;;;;;;5100065;28;20024;-78
2023/08/18 06:38:37;;;;;;;18.88;10.07;;;19.30;94.90;;;;;;5099904;28;20095;-78
2023/08/18 06:41:03;;;;;;;18.98;10.27;;;19.30;94.90;;;;;;5116890;28;20253;-78
2023/08/18 06:43:28;;;;;;;18.75;9.30;;;19.40;94.80;;;;;;5116909;28;20114;-78
2023/08/18 06:45:54;;;;;;;17.15;8.85;;;19.40;94.80;;;;;;5116960;28;20075;-78
2023/08/18 06:48:20;;;;;;;18.02;8.70;;;19.40;94.80;;;;;;5099873;28;20016;-78
2023/08/18 06:50:45;;;;;;;19.38;9.98;;;19.40;94.80;;;;;;5116886;28;20035;-78
2023/08/18 06:53:11;;;;;;;17.27;9.55;;;19.40;94.70;;;;;;5116623;28;20032;-77
2023/08/18 06:55:36;;;;;;;20.85;9.68;;;19.40;94.70;;;;;;5116789;28;20027;-78
2023/08/18 06:58:04;;;;;;;18.10;9.93;;;19.40;94.70;;;;;;5116574;28;20051;-78
2023/08/18 07:00:29;;;;;;;18.50;9.60;;;19.40;94.80;;;;;;5083377;28;20057;-78
2023/08/18 07:02:55;;;;;;;19.60;9.77;;;19.40;94.90;;;;;;5134561;28;20436;-78
2023/08/18 07:05:22;;;;;;;18.95;10.13;;;19.40;94.90;;;;;;5116534;28;20039;-77
2023/08/18 07:07:48;;;;;;;19.95;10.35;;;19.40;95.00;;;;;;5078060;28;1107783;-78
2023/08/18 07:10:14;;;;;;;19.90;10.48;;;19.30;94.90;;;;;;5117555;28;20042;-78
2023/08/18 07:12:40;;;;;;;21.27;10.75;;;19.30;95.10;;;;;;5117292;28;20038;-77
2023/08/18 07:15:06;;;;;;;22.50;10.57;;;19.30;95.20;;;;;;5116679;28;20099;-78
2023/08/18 07:17:31;;;;;;;20.60;10.73;;;19.30;95.30;;;;;;5100255;28;20106;-78
2023/08/18 07:19:57;;;;;;;17.60;9.27;;;19.40;95.30;;;;;;5117197;28;20043;-78
2023/08/18 07:22:22;;;;;;;18.13;9.95;;;19.40;95.20;;;;;;5117133;28;20099;-78
2023/08/18 07:24:48;;;;;;;19.08;9.55;;;19.50;95.20;;;;;;5100107;28;20034;-78
2023/08/18 07:27:14;;;;;;;19.38;10.27;;;19.50;95.10;;;;;;5083572;28;20094;-78
2023/08/18 07:29:40;;;;;;;19.63;9.48;;;19.40;94.90;;;;;;5099967;28;20035;-78
2023/08/18 07:32:05;;;;;;;19.05;9.80;;;19.40;95.10;;;;;;5116755;28;20036;-78
2023/08/18 07:34:31;;;;;;;21.55;10.32;;;19.40;95.30;;;;;;5117014;28;20091;-78
2023/08/18 07:36:57;;;;;;;20.92;10.65;;;19.40;95.40;;;;;;5116977;28;20019;-79
2023/08/18 07:39:24;;;;;;;20.42;9.98;;;19.40;95.30;;;;;;5116828;28;20023;-78
2023/08/18 07:41:50;;;;;;;18.20;9.40;;;19.40;95.20;;;;;;5117247;28;20031;-78
2023/08/18 07:44:15;;;;;;;21.00;10.25;;;19.50;95.20;;;;;;5116685;28;20040;-78
2023/08/18 07:46:41;;;;;;;18.20;9.80;;;19.40;95.10;;;;;;5116726;28;20020;-79
2023/08/18 07:49:07;;;;;;;18.58;10.13;;;19.40;95.20;;;;;;5116590;28;20109;-79
2023/08/18 07:51:33;;;;;;;20.10;10.18;;;19.40;95.40;;;;;;5116523;28;20040;-78
2023/08/18 07:53:58;;;;;;;19.88;9.82;;;19.50;95.40;;;;;;5099661;28;20045;-77
2023/08/18 07:56:24;;;;;;;20.13;9.88;;;19.50;95.20;;;;;;5099636;28;20024;-78
2023/08/18 07:58:50;;;;;;;21.15;10.68;;;19.50;95.20;;;;;;5134464;28;20051;-78
2023/08/18 08:01:16;;;;;;;21.48;10.63;;;19.50;95.30;;;;;;5099600;28;20023;-78
2023/08/18 08:03:41;;;;;;;21.35;11.07;;;19.50;95.30;;;;;;5099544;28;20024;-78
2023/08/18 08:06:07;;;;;;;22.75;10.77;;;19.50;95.30;;;;;;5116407;28;20057;-78
2023/08/18 08:08:33;;;;;;;23.83;11.95;;;19.60;95.30;;;;;;5099299;28;20060;-78
2023/08/18 08:10:58;;;;;;;23.08;10.80;;;19.60;95.20;;;;;;5116331;28;20020;-78
2023/08/18 08:13:25;;;;;;;23.98;12.10;;;19.60;95.30;;;;;;5116244;28;20032;-78
2023/08/18 08:15:51;;;;;;;22.95;11.52;;;19.60;95.20;;;;;;5099423;28;20028;-78
2023/08/18 08:18:18;;;;;;;21.98;11.13;;;19.60;95.20;;;;;;5116269;28;20024;-78
2023/08/18 08:20:44;;;;;;;19.90;10.88;;;19.60;95.30;;;;;;5099461;28;20039;-78
2023/08/18 08:23:10;;;;;;;22.48;10.70;;;19.60;95.40;;;;;;5116128;28;20062;-78
2023/08/18 08:25:38;;;;;;;23.35;12.18;;;19.60;95.60;;;;;;5116198;28;20042;-78
2023/08/18 08:28:04;;;;;;;22.20;11.07;;;19.60;95.50;;;;;;5099205;28;20095;-78
2023/08/18 08:30:30;;;;;;;20.40;11.02;;;19.60;95.60;;;;;;5099133;28;20475;-78
2023/08/18 08:32:57;;;;;;;20.40;11.02;;;19.70;95.50;;;;;;5133965;28;20028;-78
2023/08/18 08:35:23;;;;;;;19.08;9.77;;;19.70;95.50;;;;;;5099219;28;20372;-78
2023/08/18 08:37:48;;;;;;;22.90;10.80;;;19.80;95.40;;;;;;5133927;28;20015;-78
2023/08/18 08:40:20;;;;;;;18.52;9.88;;;19.90;95.20;;;;;;5099038;28;20066;-78
2023/08/18 08:42:48;;;;;;;18.13;9.85;;;19.90;95.10;;;;;;5098993;28;20030;-78
2023/08/18 08:45:14;;;;;;;22.00;11.95;;;19.80;94.90;;;;;;5133888;28;20024;-78
2023/08/18 08:47:43;;;;;;;19.13;10.20;;;19.80;95.00;;;;;;5115816;28;20020;-78
2023/08/18 08:50:11;;;;;;;19.33;10.43;;;19.80;95.00;;;;;;5099293;28;20037;-78
2023/08/18 08:52:39;;;;;;;20.42;10.63;;;19.80;95.20;;;;;;5099227;28;20028;-78
2023/08/18 08:55:06;;;;;;;16.55;9.80;;;19.90;95.30;;;;;;5115816;28;20034;-78
2023/08/18 08:57:32;;;;;;;19.88;11.27;;;19.90;95.30;;;;;;5082398;28;20100;-78
2023/08/18 08:59:59;;;;;;;17.38;9.70;;;19.90;95.20;;;;;;5115746;28;20019;-78
2023/08/18 09:02:24;;;;;;;20.40;10.63;;;19.90;95.10;;;;;;5098904;28;20027;-78
2023/08/18 09:04:50;;;;;;;18.20;9.70;;;19.90;95.10;;;;;;5133690;28;20447;-78
2023/08/18 09:07:16;;;;;;;17.45;9.85;;;19.90;95.10;;;;;;5098753;28;20051;-78
2023/08/18 09:09:42;;;;;;;20.73;10.20;;;19.90;95.30;;;;;;5115610;28;20024;-78
2023/08/18 09:12:10;;;;;;;17.48;9.63;;;20.00;95.30;;;;;;5115531;28;20053;-78
2023/08/18 09:14:40;;;;;;;19.05;9.77;;;20.00;95.30;;;;;;5115529;28;20019;-78
2023/08/18 09:17:06;;;;;;;17.17;9.90;;;20.00;95.20;;;;;;5115741;28;20008;-78
2023/08/18 09:19:32;;;;;;;18.27;9.45;;;20.00;95.20;;;;;;5133596;28;20020;-77
2023/08/18 09:21:59;;;;;;;17.45;8.88;;;20.00;95.10;;;;;;5115513;28;20024;-78
2023/08/18 09:24:26;;;;;;;17.73;9.10;;;20.10;95.10;;;;;;5115459;28;20028;-78
2023/08/18 09:26:52;;;;;;;18.73;9.80;;;20.10;95.00;;;;;;5115520;28;20035;-78
2023/08/18 09:29:17;;;;;;;20.65;10.88;;;20.20;95.00;;;;;;5133456;28;20035;-78
2023/08/18 09:31:45;;;;;;;18.83;10.27;;;20.20;94.80;;;;;;5115484;28;20032;-79
2023/08/18 09:34:21;;;;;;;16.42;9.27;;;20.10;94.90;;;;;;5098479;28;20020;-78
2023/08/18 09:36:54;;;;;;;19.15;10.45;;;20.10;95.10;;;;;;5115402;28;20061;-79
2023/08/18 09:39:20;;;;;;;21.95;9.88;;;20.20;95.00;;;;;;5119109;28;20087;-79
2023/08/18 09:41:53;;;;;;;20.13;10.82;;;20.10;95.00;;;;;;5119046;28;20048;-78
2023/08/18 09:44:22;;;;;;;19.23;10.30;;;20.20;95.00;;;;;;5102471;28;20031;-78
2023/08/18 09:46:58;;;;;;;21.48;10.88;;;20.20;95.10;;;;;;5119004;28;20087;-78
2023/08/18 09:49:25;;;;;;;19.92;10.07;;;20.20;95.10;;;;;;5118961;28;20028;-78
2023/08/18 09:52:04;;;;;;;20.83;10.85;;;20.30;95.30;;;;;;5119053;28;20028;-78
2023/08/18 09:54:34;;;;;;;18.95;10.32;;;20.30;95.30;;;;;;5118943;28;20085;-78
2023/08/18 09:57:05;;;;;;;21.90;10.40;;;20.40;95.20;;;;;;5118933;28;20024;-78
2023/08/18 09:59:57;;;;;;;18.67;10.05;;;20.50;95.20;;;;;;5136854;28;20019;-78
2023/08/18 10:02:28;;;;;;;20.93;10.73;;;20.50;95.10;;;;;;5136833;28;20028;-78
2023/08/18 10:04:54;;;;;;;20.38;10.95;;;20.50;95.00;;;;;;5136724;28;20036;-78
2023/08/18 10:07:21;;;;;;;19.92;10.52;;;20.60;94.80;;;;;;5136407;28;20054;-78
2023/08/18 10:09:47;;;;;;;19.65;10.43;;;20.60;94.60;;;;;;5101577;28;20027;-78
2023/08/18 10:12:12;;;;;;;19.70;10.95;;;20.50;94.60;;;;;;5101430;28;20053;-78
2023/08/18 10:14:39;;;;;;;22.90;11.85;;;20.50;94.60;;;;;;5118390;28;20032;-78
2023/08/18 10:17:06;;;;;;;18.00;9.82;;;20.40;95.00;;;;;;5118535;28;20038;-79
2023/08/18 10:19:50;;;;;;;20.40;9.85;;;20.40;94.90;;;;;;5118446;28;20058;-79
2023/08/18 10:22:17;;;;;;;20.60;10.85;;;20.60;95.10;;;;;;5118357;28;20047;-79
2023/08/18 10:24:45;;;;;;;20.98;10.60;;;20.60;94.90;;;;;;5101468;28;20027;-78
2023/08/18 10:27:29;;;;;;;21.70;11.05;;;20.70;94.90;;;;;;5136292;28;20034;-78
2023/08/18 10:30:07;;;;;;;18.20;10.57;;;20.70;94.80;;;;;;5136276;28;20031;-78
2023/08/18 10:32:33;;;;;;;20.42;11.27;;;20.70;94.80;;;;;;5136367;28;20079;-78
2023/08/18 10:35:22;;;;;;;24.35;11.85;;;20.80;94.60;;;;;;5118041;28;20049;-78
2023/08/18 10:37:55;;;;;;;20.25;10.23;;;20.80;94.30;;;;;;5136094;28;20051;-78
2023/08/18 10:40:35;;;;;;;24.70;11.50;;;20.80;94.50;;;;;;5118145;28;20024;-78
2023/08/18 10:43:10;;;;;;;18.27;10.73;;;20.80;94.70;;;;;;5117918;28;20035;-78
2023/08/18 10:45:36;;;;;;;21.13;11.45;;;20.90;94.80;;;;;;5135952;28;20027;-78
2023/08/18 10:48:04;;;;;;;22.15;11.45;;;20.90;94.80;;;;;;5117971;28;20046;-78
2023/08/18 10:50:31;;;;;;;21.00;10.93;;;21.00;94.80;;;;;;5099777;28;20026;-78
2023/08/18 10:52:57;;;;;;;21.35;11.32;;;21.00;94.80;;;;;;5117669;28;20031;-78
2023/08/18 10:55:24;;;;;;;18.83;11.23;;;21.10;94.80;;;;;;5117608;28;20087;-79
2023/08/18 10:57:50;;;;;;;20.45;10.45;;;21.20;94.60;;;;;;5117921;28;20023;-79
2023/08/18 11:00:18;;;;;;;18.90;11.02;;;21.30;94.60;;;;;;5117716;28;20031;-78
2023/08/18 11:02:44;;;;;;;18.42;11.20;;;21.40;94.60;;;;;;5100821;28;20024;-78
2023/08/18 11:05:10;;;;;;;19.27;11.10;;;21.50;94.40;;;;;;5117506;28;20024;-78
2023/08/18 11:07:36;;;;;;;19.63;11.00;;;21.60;94.50;;;;;;5117143;28;20115;-78
2023/08/18 11:10:19;;;;;;;19.98;11.35;;;21.70;94.60;;;;;;5117561;28;20035;-78
2023/08/18 11:12:46;;;;;;;19.70;12.73;;;21.80;94.90;;;;;;5117349;28;20081;-78
2023/08/18 11:15:13;;;;;;;21.92;12.60;;;21.90;94.20;;;;;;5100251;28;20114;-78
2023/08/18 11:17:40;;;;;;;20.10;11.65;;;21.90;94.00;;;;;;5135301;28;20024;-78
2023/08/18 11:20:07;;;;;;;20.70;11.43;;;21.90;93.70;;;;;;5117204;28;20018;-78
2023/08/18 11:22:36;;;;;;;19.48;11.63;;;21.90;93.80;;;;;;5117212;28;20028;-79
2023/08/18 11:25:03;;;;;;;21.63;12.30;;;21.90;93.90;;;;;;5135129;28;20026;-78
2023/08/18 11:27:31;;;;;;;20.33;13.18;;;22.00;94.20;;;;;;5100375;28;20028;-78
2023/08/18 11:29:57;;;;;;;21.15;12.45;;;22.10;94.00;;;;;;5117012;28;20099;-79
2023/08/18 11:32:23;;;;;;;23.60;13.30;;;22.10;93.80;;;;;;5117205;28;20087;-78
2023/08/18 11:34:48;;;;;;;22.83;14.02;;;22.20;93.30;;;;;;5099974;28;20531;-78
2023/08/18 11:37:14;;;;;;;23.38;13.07;;;22.10;93.50;;;;;;5117210;28;20028;-78
2023/08/18 11:39:40;;;;;;;22.90;13.35;;;22.20;93.60;;;;;;5134892;28;20032;-78
2023/08/18 11:42:05;;;;;;;21.52;12.88;;;22.20;93.70;;;;;;5099901;28;20039;-78
2023/08/18 11:44:33;;;;;;;20.45;11.82;;;22.30;93.50;;;;;;5099894;28;20027;-78
2023/08/18 11:47:00;;;;;;;21.58;12.68;;;22.30;93.50;;;;;;5116743;28;20023;-78
2023/08/18 11:49:26;;;;;;;19.92;11.90;;;22.40;93.50;;;;;;5116985;28;20047;-79
2023/08/18 11:51:59;;;;;;;21.60;12.07;;;22.50;93.90;;;;;;5116539;28;20035;-78
2023/08/18 11:54:28;;;;;;;18.65;11.65;;;22.70;94.10;;;;;;5116926;28;20038;-78
2023/08/18 11:56:53;;;;;;;17.08;10.48;;;22.90;93.80;;;;;;5116472;28;20020;-78
2023/08/18 11:59:20;;;;;;;18.98;11.25;;;23.00;93.90;;;;;;5099562;28;20052;-78
2023/08/18 12:01:46;;;;;;;17.05;10.27;;;23.20;93.60;;;;;;5134045;28;20024;-78
2023/08/18 12:04:12;;;;;;;17.77;11.07;;;23.30;93.40;;;;;;5116334;28;20098;-78
2023/08/18 12:06:39;;;;;;;16.15;10.27;;;23.40;93.20;;;;;;5116226;28;20036;-78
2023/08/18 12:09:12;;;;;;;17.27;11.43;;;23.50;93.10;;;;;;5116600;28;20094;-78
2023/08/18 12:11:38;;;;;;;20.30;12.55;;;23.60;93.10;;;;;;5100407;28;20034;-78
2023/08/18 12:14:04;;;;;;;18.65;12.02;;;23.70;92.50;;;;;;5134238;28;20047;-78
2023/08/18 12:16:32;;;;;;;21.33;12.90;;;23.70;91.90;;;;;;5116514;28;20075;-78
2023/08/18 12:18:58;;;;;;;20.20;11.45;;;23.70;92.10;;;;;;5134139;28;20027;-78
2023/08/18 12:21:24;;;;;;;21.27;13.35;;;23.60;92.10;;;;;;5116125;28;20032;-78
2023/08/18 12:23:50;;;;;;;20.67;11.68;;;23.70;92.00;;;;;;5099281;28;20032;-78
2023/08/18 12:26:17;;;;;;;16.60;11.00;;;23.80;92.20;;;;;;5134108;28;20091;-78
2023/08/18 12:28:43;;;;;;;17.73;11.80;;;23.80;92.20;;;;;;5116462;28;20406;-78
2023/08/18 12:31:09;;;;;;;18.55;11.95;;;24.00;92.10;;;;;;5115822;28;20035;-79